sensor_id;sensor_type;location;lat;lon;timestamp;pressure;altitude;pressure_sealevel;temperature;humidity
64616;BME280;51027;42.162;24.754;2023-01-10T00:00:22;99433.97;;;5.01;100.00
64616;BME280;51027;42.162;24.754;2023-01-10T00:02:49;99420.59;;;5.16;100.00
64616;BME280;51027;42.162;24.754;2023-01-10T00:05:15;99391.00;;;4.75;100.00
64616;BME280;51027;42.162;24.754;2023-01-10T00:07:40;99414.97;;;4.94;100.00
64616;BME280;51027;42.162;24.754;2023-01-10T00:10:06;99414.81;;;5.00;100.00
64616;BME280;51027;42.162;24.754;2023-01-10T00:12:32;99410.47;;;5.02;100.00
64616;BME280;51027;42.162;24.754;2023-01-10T00:15:15;99399.72;;;5.16;100.00
64616;BME280;51027;42.162;24.754;2023-01-10T00:17:41;99407.78;;;5.05;100.00
64616;BME280;51027;42.162;24.754;2023-01-10T00:20:07;99397.81;;;4.82;100.00
64616;BME280;51027;42.162;24.754;2023-01-10T00:22:32;99374.94;;;4.95;100.00
64616;BME280;51027;42.162;24.754;2023-01-10T00:24:58;99371.34;;;4.99;100.00
64616;BME280;51027;42.162;24.754;2023-01-10T00:27:23;99377.00;;;5.19;100.00
64616;BME280;51027;42.162;24.754;2023-01-10T00:29:49;99382.28;;;5.16;100.00
64616;BME280;51027;42.162;24.754;2023-01-10T00:32:19;99391.34;;;5.00;100.00
64616;BME280;51027;42.162;24.754;2023-01-10T00:34:44;99376.84;;;4.87;100.00
64616;BME280;51027;42.162;24.754;2023-01-10T00:37:10;99366.91;;;5.04;100.00
64616;BME280;51027;42.162;24.754;2023-01-10T00:39:35;99353.19;;;4.95;100.00
64616;BME280;51027;42.162;24.754;2023-01-10T00:42:01;99355.94;;;4.88;100.00
64616;BME280;51027;42.162;24.754;2023-01-10T00:44:45;99359.78;;;5.12;100.00
64616;BME280;51027;42.162;24.754;2023-01-10T00:47:12;99353.41;;;5.24;100.00
64616;BME280;51027;42.162;24.754;2023-01-10T00:49:37;99354.78;;;5.02;100.00
64616;BME280;51027;42.162;24.754;2023-01-10T00:52:03;99359.09;;;5.04;100.00
64616;BME280;51027;42.162;24.754;2023-01-10T00:54:29;99346.38;;;4.47;100.00
64616;BME280;51027;42.162;24.754;2023-01-10T00:56:54;99352.81;;;4.29;100.00
64616;BME280;51027;42.162;24.754;2023-01-10T00:59:20;99362.28;;;4.77;100.00
64616;BME280;51027;42.162;24.754;2023-01-10T01:01:45;99358.63;;;4.85;100.00
64616;BME280;51027;42.162;24.754;2023-01-10T01:04:11;99367.16;;;4.94;100.00
64616;BME280;51027;42.162;24.754;2023-01-10T01:06:36;99340.78;;;4.66;100.00
64616;BME280;51027;42.162;24.754;2023-01-10T01:09:01;99297.44;;;4.60;100.00
64616;BME280;51027;42.162;24.754;2023-01-10T01:11:27;99336.16;;;4.78;100.00
64616;BME280;51027;42.162;24.754;2023-01-10T01:13:52;99341.56;;;4.71;100.00
64616;BME280;51027;42.162;24.754;2023-01-10T01:16:18;99354.53;;;4.74;100.00
64616;BME280;51027;42.162;24.754;2023-01-10T01:18:43;99340.41;;;4.84;100.00
64616;BME280;51027;42.162;24.754;2023-01-10T01:21:09;99346.34;;;4.89;100.00
64616;BME280;51027;42.162;24.754;2023-01-10T01:23:34;99350.56;;;4.96;100.00
64616;BME280;51027;42.162;24.754;2023-01-10T01:26:00;99308.88;;;4.93;100.00
64616;BME280;51027;42.162;24.754;2023-01-10T01:28:26;99337.91;;;5.16;100.00
64616;BME280;51027;42.162;24.754;2023-01-10T01:30:52;99342.94;;;4.87;100.00
64616;BME280;51027;42.162;24.754;2023-01-10T01:33:18;99346.72;;;5.12;100.00
64616;BME280;51027;42.162;24.754;2023-01-10T01:35:45;99339.63;;;5.17;100.00
64616;BME280;51027;42.162;24.754;2023-01-10T01:38:12;99343.75;;;5.28;100.00
64616;BME280;51027;42.162;24.754;2023-01-10T01:40:37;99326.69;;;5.13;100.00
64616;BME280;51027;42.162;24.754;2023-01-10T01:43:04;99317.69;;;5.26;100.00
64616;BME280;51027;42.162;24.754;2023-01-10T01:45:33;99309.72;;;5.32;100.00
64616;BME280;51027;42.162;24.754;2023-01-10T01:48:07;99316.94;;;5.19;100.00
64616;BME280;51027;42.162;24.754;2023-01-10T01:50:58;99286.22;;;5.32;100.00
64616;BME280;51027;42.162;24.754;2023-01-10T01:53:39;99280.31;;;5.24;100.00
64616;BME280;51027;42.162;24.754;2023-01-10T01:56:14;99295.97;;;5.24;100.00
64616;BME280;51027;42.162;24.754;2023-01-10T01:58:53;99297.44;;;4.99;100.00
64616;BME280;51027;42.162;24.754;2023-01-10T02:01:21;99296.28;;;5.10;100.00
64616;BME280;51027;42.162;24.754;2023-01-10T02:03:50;99295.97;;;5.24;100.00
64616;BME280;51027;42.162;24.754;2023-01-10T02:06:18;99263.47;;;5.00;100.00
64616;BME280;51027;42.162;24.754;2023-01-10T02:08:51;99254.59;;;5.07;100.00
64616;BME280;51027;42.162;24.754;2023-01-10T02:11:18;99265.84;;;5.09;100.00
64616;BME280;51027;42.162;24.754;2023-01-10T02:13:45;99257.22;;;5.07;100.00
64616;BME280;51027;42.162;24.754;2023-01-10T02:16:10;99244.25;;;5.04;100.00
64616;BME280;51027;42.162;24.754;2023-01-10T02:18:38;99250.41;;;5.00;100.00
64616;BME280;51027;42.162;24.754;2023-01-10T02:26:48;99245.81;;;5.11;100.00
64616;BME280;51027;42.162;24.754;2023-01-10T02:35:02;99184.63;;;4.87;100.00
64616;BME280;51027;42.162;24.754;2023-01-10T02:40:51;99214.31;;;4.83;100.00
64616;BME280;51027;42.162;24.754;2023-01-10T02:43:25;99195.78;;;4.57;100.00
64616;BME280;51027;42.162;24.754;2023-01-10T02:45:58;99218.31;;;4.97;100.00
64616;BME280;51027;42.162;24.754;2023-01-10T02:48:25;99240.91;;;4.98;100.00
64616;BME280;51027;42.162;24.754;2023-01-10T02:50:57;99228.16;;;4.85;100.00
64616;BME280;51027;42.162;24.754;2023-01-10T02:53:48;99228.53;;;4.70;100.00
64616;BME280;51027;42.162;24.754;2023-01-10T02:58:49;99224.41;;;4.21;100.00
64616;BME280;51027;42.162;24.754;2023-01-10T03:07:55;99224.00;;;4.77;100.00
64616;BME280;51027;42.162;24.754;2023-01-10T03:10:34;99222.94;;;4.85;100.00
64616;BME280;51027;42.162;24.754;2023-01-10T03:13:11;99219.47;;;4.85;100.00
64616;BME280;51027;42.162;24.754;2023-01-10T03:15:40;99212.50;;;4.85;100.00
64616;BME280;51027;42.162;24.754;2023-01-10T03:18:12;99216.06;;;4.44;100.00
64616;BME280;51027;42.162;24.754;2023-01-10T03:20:41;99195.25;;;4.43;100.00
64616;BME280;51027;42.162;24.754;2023-01-10T03:23:09;99188.41;;;4.37;100.00
64616;BME280;51027;42.162;24.754;2023-01-10T03:25:37;99196.44;;;4.67;100.00
64616;BME280;51027;42.162;24.754;2023-01-10T03:28:08;99184.16;;;4.72;100.00
64616;BME280;51027;42.162;24.754;2023-01-10T03:32:59;99205.94;;;3.90;100.00
64616;BME280;51027;42.162;24.754;2023-01-10T03:35:47;99184.44;;;4.21;100.00
64616;BME280;51027;42.162;24.754;2023-01-10T03:38:21;99170.47;;;4.62;100.00
64616;BME280;51027;42.162;24.754;2023-01-10T03:41:02;99171.13;;;4.72;100.00
64616;BME280;51027;42.162;24.754;2023-01-10T03:43:45;99174.03;;;4.58;100.00
64616;BME280;51027;42.162;24.754;2023-01-10T03:46:36;99185.25;;;4.61;100.00
64616;BME280;51027;42.162;24.754;2023-01-10T03:49:05;99190.13;;;4.40;100.00
64616;BME280;51027;42.162;24.754;2023-01-10T03:51:31;99183.13;;;4.77;100.00
64616;BME280;51027;42.162;24.754;2023-01-10T03:54:01;99147.50;;;4.76;100.00
64616;BME280;51027;42.162;24.754;2023-01-10T03:56:26;99160.19;;;4.91;100.00
64616;BME280;51027;42.162;24.754;2023-01-10T03:58:52;99151.47;;;4.93;100.00
64616;BME280;51027;42.162;24.754;2023-01-10T04:01:17;99131.50;;;4.91;100.00
64616;BME280;51027;42.162;24.754;2023-01-10T04:03:43;99116.28;;;5.07;100.00
64616;BME280;51027;42.162;24.754;2023-01-10T04:06:08;99101.63;;;5.03;100.00
64616;BME280;51027;42.162;24.754;2023-01-10T04:08:34;99106.69;;;5.08;100.00
64616;BME280;51027;42.162;24.754;2023-01-10T04:10:59;99113.66;;;5.07;100.00
64616;BME280;51027;42.162;24.754;2023-01-10T04:13:25;99108.91;;;4.90;100.00
64616;BME280;51027;42.162;24.754;2023-01-10T04:15:50;99119.09;;;5.00;100.00
64616;BME280;51027;42.162;24.754;2023-01-10T04:18:16;99130.63;;;4.91;100.00
64616;BME280;51027;42.162;24.754;2023-01-10T04:20:41;99144.94;;;5.09;100.00
64616;BME280;51027;42.162;24.754;2023-01-10T04:23:06;99138.78;;;5.13;100.00
64616;BME280;51027;42.162;24.754;2023-01-10T04:25:32;99150.88;;;5.15;100.00
64616;BME280;51027;42.162;24.754;2023-01-10T04:27:57;99157.66;;;5.23;100.00
64616;BME280;51027;42.162;24.754;2023-01-10T04:30:23;99148.06;;;5.23;100.00
64616;BME280;51027;42.162;24.754;2023-01-10T04:32:48;99129.34;;;5.07;100.00
64616;BME280;51027;42.162;24.754;2023-01-10T04:35:14;99119.97;;;4.99;100.00
64616;BME280;51027;42.162;24.754;2023-01-10T04:37:39;99109.69;;;4.94;100.00
64616;BME280;51027;42.162;24.754;2023-01-10T04:40:05;99128.31;;;4.80;100.00
64616;BME280;51027;42.162;24.754;2023-01-10T04:42:31;99125.56;;;4.85;100.00
64616;BME280;51027;42.162;24.754;2023-01-10T04:44:56;99130.91;;;4.80;100.00
64616;BME280;51027;42.162;24.754;2023-01-10T04:47:22;99114.28;;;4.84;100.00
64616;BME280;51027;42.162;24.754;2023-01-10T04:49:47;99136.13;;;4.80;100.00
64616;BME280;51027;42.162;24.754;2023-01-10T04:52:12;99142.81;;;4.55;100.00
64616;BME280;51027;42.162;24.754;2023-01-10T04:54:38;99062.34;;;4.04;100.00
64616;BME280;51027;42.162;24.754;2023-01-10T04:57:03;99128.38;;;4.42;100.00
64616;BME280;51027;42.162;24.754;2023-01-10T04:59:31;99121.44;;;4.39;100.00
64616;BME280;51027;42.162;24.754;2023-01-10T05:01:56;99103.81;;;4.50;100.00
64616;BME280;51027;42.162;24.754;2023-01-10T05:04:22;99116.34;;;4.34;100.00
64616;BME280;51027;42.162;24.754;2023-01-10T05:06:47;99095.84;;;4.56;100.00
64616;BME280;51027;42.162;24.754;2023-01-10T05:09:13;99099.22;;;4.61;100.00
64616;BME280;51027;42.162;24.754;2023-01-10T05:11:39;99111.97;;;4.72;100.00
64616;BME280;51027;42.162;24.754;2023-01-10T05:14:04;99096.50;;;4.65;100.00
64616;BME280;51027;42.162;24.754;2023-01-10T05:16:30;99101.13;;;4.87;100.00
64616;BME280;51027;42.162;24.754;2023-01-10T05:18:55;99114.09;;;4.56;100.00
64616;BME280;51027;42.162;24.754;2023-01-10T05:21:21;99097.41;;;4.63;100.00
64616;BME280;51027;42.162;24.754;2023-01-10T05:23:46;99096.28;;;4.74;100.00
64616;BME280;51027;42.162;24.754;2023-01-10T05:26:14;99095.75;;;4.61;100.00
64616;BME280;51027;42.162;24.754;2023-01-10T05:28:40;99097.25;;;4.70;100.00
64616;BME280;51027;42.162;24.754;2023-01-10T05:31:08;99098.13;;;4.70;100.00
64616;BME280;51027;42.162;24.754;2023-01-10T05:33:34;99095.94;;;5.51;100.00
64616;BME280;51027;42.162;24.754;2023-01-10T05:36:01;99080.59;;;5.08;100.00
64616;BME280;51027;42.162;24.754;2023-01-10T05:38:28;99060.81;;;4.99;100.00
64616;BME280;51027;42.162;24.754;2023-01-10T05:40:56;99071.31;;;4.98;100.00
64616;BME280;51027;42.162;24.754;2023-01-10T05:43:22;99066.88;;;5.01;100.00
64616;BME280;51027;42.162;24.754;2023-01-10T05:45:48;99044.72;;;4.83;100.00
64616;BME280;51027;42.162;24.754;2023-01-10T05:48:14;99077.66;;;4.87;100.00
64616;BME280;51027;42.162;24.754;2023-01-10T05:50:39;99064.47;;;4.94;100.00
64616;BME280;51027;42.162;24.754;2023-01-10T05:53:04;99057.34;;;4.99;100.00
64616;BME280;51027;42.162;24.754;2023-01-10T05:55:31;99057.97;;;5.08;100.00
64616;BME280;51027;42.162;24.754;2023-01-10T05:57:57;99079.03;;;5.02;100.00
64616;BME280;51027;42.162;24.754;2023-01-10T06:00:23;99077.94;;;5.09;100.00
64616;BME280;51027;42.162;24.754;2023-01-10T06:02:49;99052.56;;;4.83;100.00
64616;BME280;51027;42.162;24.754;2023-01-10T06:05:14;99087.78;;;5.00;100.00
64616;BME280;51027;42.162;24.754;2023-01-10T06:07:40;99083.16;;;5.09;100.00
64616;BME280;51027;42.162;24.754;2023-01-10T06:10:05;99081.75;;;4.98;100.00
64616;BME280;51027;42.162;24.754;2023-01-10T06:12:31;99082.25;;;4.78;100.00
64616;BME280;51027;42.162;24.754;2023-01-10T06:14:56;99092.16;;;4.65;100.00
64616;BME280;51027;42.162;24.754;2023-01-10T06:17:22;99084.25;;;4.68;100.00
64616;BME280;51027;42.162;24.754;2023-01-10T06:19:47;99087.19;;;4.88;100.00
64616;BME280;51027;42.162;24.754;2023-01-10T06:22:13;99089.22;;;4.77;100.00
64616;BME280;51027;42.162;24.754;2023-01-10T06:24:38;99084.59;;;4.54;100.00
64616;BME280;51027;42.162;24.754;2023-01-10T06:27:03;99090.53;;;4.61;100.00
64616;BME280;51027;42.162;24.754;2023-01-10T06:29:30;99090.38;;;4.31;100.00
64616;BME280;51027;42.162;24.754;2023-01-10T06:31:55;99090.41;;;4.30;100.00
64616;BME280;51027;42.162;24.754;2023-01-10T06:34:20;99091.81;;;4.06;100.00
64616;BME280;51027;42.162;24.754;2023-01-10T06:36:46;99081.13;;;4.54;100.00
64616;BME280;51027;42.162;24.754;2023-01-10T06:39:11;99067.53;;;4.41;100.00
64616;BME280;51027;42.162;24.754;2023-01-10T06:41:37;99075.63;;;4.30;100.00
64616;BME280;51027;42.162;24.754;2023-01-10T06:44:02;99073.97;;;4.62;100.00
64616;BME280;51027;42.162;24.754;2023-01-10T06:46:28;99075.56;;;4.68;100.00
64616;BME280;51027;42.162;24.754;2023-01-10T06:48:53;99061.59;;;4.70;100.00
64616;BME280;51027;42.162;24.754;2023-01-10T06:51:18;99071.69;;;4.50;100.00
64616;BME280;51027;42.162;24.754;2023-01-10T06:53:44;99080.22;;;4.55;100.00
64616;BME280;51027;42.162;24.754;2023-01-10T06:56:10;99080.41;;;4.47;100.00
64616;BME280;51027;42.162;24.754;2023-01-10T06:58:36;99076.19;;;4.43;100.00
64616;BME280;51027;42.162;24.754;2023-01-10T07:01:06;99079.34;;;4.19;100.00
64616;BME280;51027;42.162;24.754;2023-01-10T07:03:36;99083.81;;;4.14;100.00
64616;BME280;51027;42.162;24.754;2023-01-10T07:06:02;99078.25;;;4.29;100.00
64616;BME280;51027;42.162;24.754;2023-01-10T07:08:27;99043.63;;;4.24;100.00
64616;BME280;51027;42.162;24.754;2023-01-10T07:10:56;99062.00;;;4.19;100.00
64616;BME280;51027;42.162;24.754;2023-01-10T07:13:22;99058.19;;;3.95;100.00
64616;BME280;51027;42.162;24.754;2023-01-10T07:15:48;99054.81;;;3.92;100.00
64616;BME280;51027;42.162;24.754;2023-01-10T07:18:13;99052.78;;;4.04;100.00
64616;BME280;51027;42.162;24.754;2023-01-10T07:20:39;99044.88;;;4.09;100.00
64616;BME280;51027;42.162;24.754;2023-01-10T07:23:04;99046.34;;;4.19;100.00
64616;BME280;51027;42.162;24.754;2023-01-10T07:25:29;99038.38;;;4.25;100.00
64616;BME280;51027;42.162;24.754;2023-01-10T07:27:55;99029.38;;;4.37;100.00
64616;BME280;51027;42.162;24.754;2023-01-10T07:30:21;99040.41;;;4.48;100.00
64616;BME280;51027;42.162;24.754;2023-01-10T07:32:56;99017.91;;;4.10;100.00
64616;BME280;51027;42.162;24.754;2023-01-10T07:35:22;99024.53;;;4.23;100.00
64616;BME280;51027;42.162;24.754;2023-01-10T07:37:47;99013.16;;;4.26;100.00
64616;BME280;51027;42.162;24.754;2023-01-10T07:40:13;99017.06;;;4.44;100.00
64616;BME280;51027;42.162;24.754;2023-01-10T07:42:38;99012.28;;;4.61;100.00
64616;BME280;51027;42.162;24.754;2023-01-10T07:45:04;99005.94;;;4.71;100.00
64616;BME280;51027;42.162;24.754;2023-01-10T07:47:31;99008.25;;;4.48;100.00
64616;BME280;51027;42.162;24.754;2023-01-10T07:49:56;98984.84;;;4.46;100.00
64616;BME280;51027;42.162;24.754;2023-01-10T07:52:22;99011.16;;;4.71;100.00
64616;BME280;51027;42.162;24.754;2023-01-10T07:54:47;99007.06;;;4.27;100.00
64616;BME280;51027;42.162;24.754;2023-01-10T07:57:12;98987.41;;;4.48;100.00
64616;BME280;51027;42.162;24.754;2023-01-10T07:59:38;99001.28;;;4.50;100.00
64616;BME280;51027;42.162;24.754;2023-01-10T08:02:03;99002.28;;;4.77;100.00
64616;BME280;51027;42.162;24.754;2023-01-10T08:04:29;98988.59;;;4.69;100.00
64616;BME280;51027;42.162;24.754;2023-01-10T08:06:54;98975.88;;;4.89;100.00
64616;BME280;51027;42.162;24.754;2023-01-10T08:09:20;98975.97;;;4.86;100.00
64616;BME280;51027;42.162;24.754;2023-01-10T08:11:45;98964.91;;;4.76;100.00
64616;BME280;51027;42.162;24.754;2023-01-10T08:14:11;98966.41;;;4.54;100.00
64616;BME280;51027;42.162;24.754;2023-01-10T08:16:36;98962.97;;;4.52;100.00
64616;BME280;51027;42.162;24.754;2023-01-10T08:19:01;98957.31;;;4.36;100.00
64616;BME280;51027;42.162;24.754;2023-01-10T08:21:27;98957.16;;;4.42;100.00
64616;BME280;51027;42.162;24.754;2023-01-10T08:23:53;98966.50;;;4.51;100.00
64616;BME280;51027;42.162;24.754;2023-01-10T08:26:18;98982.47;;;4.71;100.00
64616;BME280;51027;42.162;24.754;2023-01-10T08:28:44;98981.25;;;4.16;100.00
64616;BME280;51027;42.162;24.754;2023-01-10T08:31:09;98983.94;;;4.13;100.00
64616;BME280;51027;42.162;24.754;2023-01-10T08:33:39;98984.22;;;4.02;100.00
64616;BME280;51027;42.162;24.754;2023-01-10T08:36:05;98974.94;;;4.26;100.00
64616;BME280;51027;42.162;24.754;2023-01-10T08:38:38;98962.06;;;4.20;100.00
64616;BME280;51027;42.162;24.754;2023-01-10T08:41:04;98952.63;;;4.49;100.00
64616;BME280;51027;42.162;24.754;2023-01-10T08:43:29;98940.91;;;4.32;100.00
64616;BME280;51027;42.162;24.754;2023-01-10T08:45:54;98948.13;;;4.21;100.00
64616;BME280;51027;42.162;24.754;2023-01-10T08:48:20;98950.31;;;4.04;100.00
64616;BME280;51027;42.162;24.754;2023-01-10T08:50:45;98951.97;;;4.07;100.00
64616;BME280;51027;42.162;24.754;2023-01-10T08:53:10;98944.50;;;3.93;100.00
64616;BME280;51027;42.162;24.754;2023-01-10T08:55:37;98938.09;;;4.06;100.00
64616;BME280;51027;42.162;24.754;2023-01-10T08:58:03;98932.28;;;4.29;100.00
64616;BME280;51027;42.162;24.754;2023-01-10T09:00:29;98940.19;;;4.26;100.00
64616;BME280;51027;42.162;24.754;2023-01-10T09:02:54;98934.22;;;3.87;100.00
64616;BME280;51027;42.162;24.754;2023-01-10T09:05:20;98938.31;;;3.97;100.00
64616;BME280;51027;42.162;24.754;2023-01-10T09:07:45;98936.69;;;3.93;100.00
64616;BME280;51027;42.162;24.754;2023-01-10T09:10:11;98933.69;;;4.10;100.00
64616;BME280;51027;42.162;24.754;2023-01-10T09:12:36;98925.06;;;4.40;100.00
64616;BME280;51027;42.162;24.754;2023-01-10T09:15:23;98901.06;;;4.27;100.00
64616;BME280;51027;42.162;24.754;2023-01-10T09:17:53;98905.88;;;4.43;100.00
64616;BME280;51027;42.162;24.754;2023-01-10T09:20:19;98901.41;;;4.14;100.00
64616;BME280;51027;42.162;24.754;2023-01-10T09:22:44;98897.53;;;4.30;100.00
64616;BME280;51027;42.162;24.754;2023-01-10T09:25:10;98897.72;;;4.22;100.00
64616;BME280;51027;42.162;24.754;2023-01-10T09:27:35;98882.13;;;3.87;100.00
64616;BME280;51027;42.162;24.754;2023-01-10T09:30:01;98871.16;;;4.08;100.00
64616;BME280;51027;42.162;24.754;2023-01-10T09:32:26;98860.72;;;4.08;100.00
64616;BME280;51027;42.162;24.754;2023-01-10T09:34:52;98874.50;;;4.46;100.00
64616;BME280;51027;42.162;24.754;2023-01-10T09:37:17;98868.41;;;4.45;100.00
64616;BME280;51027;42.162;24.754;2023-01-10T09:39:42;98839.28;;;4.31;100.00
64616;BME280;51027;42.162;24.754;2023-01-10T09:42:36;98850.97;;;4.47;100.00
64616;BME280;51027;42.162;24.754;2023-01-10T09:45:25;98833.81;;;4.40;100.00
64616;BME280;51027;42.162;24.754;2023-01-10T09:48:01;98826.81;;;4.42;100.00
64616;BME280;51027;42.162;24.754;2023-01-10T09:50:48;98829.75;;;4.59;100.00
64616;BME280;51027;42.162;24.754;2023-01-10T09:53:22;98834.28;;;4.54;100.00
64616;BME280;51027;42.162;24.754;2023-01-10T09:55:53;98830.00;;;4.81;100.00
64616;BME280;51027;42.162;24.754;2023-01-10T09:58:20;98799.47;;;4.55;100.00
64616;BME280;51027;42.162;24.754;2023-01-10T10:00:52;98808.38;;;4.78;100.00
64616;BME280;51027;42.162;24.754;2023-01-10T10:05:50;98808.28;;;4.81;100.00
64616;BME280;51027;42.162;24.754;2023-01-10T10:08:17;98802.03;;;4.86;100.00
64616;BME280;51027;42.162;24.754;2023-01-10T10:14:02;98802.66;;;4.65;100.00
64616;BME280;51027;42.162;24.754;2023-01-10T10:25:50;98775.66;;;4.96;100.00
64616;BME280;51027;42.162;24.754;2023-01-10T10:30:57;98745.53;;;4.85;100.00
64616;BME280;51027;42.162;24.754;2023-01-10T10:35:59;98744.78;;;4.82;100.00
64616;BME280;51027;42.162;24.754;2023-01-10T10:38:40;98737.97;;;5.04;100.00
64616;BME280;51027;42.162;24.754;2023-01-10T10:41:17;98735.72;;;5.20;100.00
64616;BME280;51027;42.162;24.754;2023-01-10T10:43:51;98734.00;;;5.19;100.00
64616;BME280;51027;42.162;24.754;2023-01-10T10:46:18;98721.50;;;4.76;100.00
64616;BME280;51027;42.162;24.754;2023-01-10T10:48:55;98693.13;;;4.65;100.00
64616;BME280;51027;42.162;24.754;2023-01-10T10:51:45;98683.75;;;4.59;100.00
64616;BME280;51027;42.162;24.754;2023-01-10T10:54:13;98673.31;;;4.59;100.00
64616;BME280;51027;42.162;24.754;2023-01-10T10:56:39;98704.75;;;4.83;100.00
64616;BME280;51027;42.162;24.754;2023-01-10T10:59:05;98691.25;;;4.70;100.00
64616;BME280;51027;42.162;24.754;2023-01-10T11:01:31;98705.00;;;4.75;100.00
64616;BME280;51027;42.162;24.754;2023-01-10T11:04:11;98707.38;;;4.83;100.00
64616;BME280;51027;42.162;24.754;2023-01-10T11:06:39;98703.59;;;4.91;100.00
64616;BME280;51027;42.162;24.754;2023-01-10T11:09:11;98707.81;;;5.22;100.00
64616;BME280;51027;42.162;24.754;2023-01-10T11:11:43;98651.22;;;4.71;100.00
64616;BME280;51027;42.162;24.754;2023-01-10T11:14:10;98664.06;;;4.77;100.00
64616;BME280;51027;42.162;24.754;2023-01-10T11:16:41;98650.19;;;4.49;100.00
64616;BME280;51027;42.162;24.754;2023-01-10T11:21:46;98664.31;;;4.96;100.00
64616;BME280;51027;42.162;24.754;2023-01-10T11:24:26;98662.25;;;5.06;100.00
64616;BME280;51027;42.162;24.754;2023-01-10T11:26:54;98642.69;;;4.93;100.00
64616;BME280;51027;42.162;24.754;2023-01-10T11:29:33;98632.31;;;5.16;100.00
64616;BME280;51027;42.162;24.754;2023-01-10T11:32:14;98646.75;;;5.01;100.00
64616;BME280;51027;42.162;24.754;2023-01-10T11:34:48;98645.38;;;4.91;100.00
64616;BME280;51027;42.162;24.754;2023-01-10T11:37:20;98643.06;;;4.82;100.00
64616;BME280;51027;42.162;24.754;2023-01-10T11:39:46;98654.78;;;5.20;100.00
64616;BME280;51027;42.162;24.754;2023-01-10T11:44:49;98645.00;;;5.27;100.00
64616;BME280;51027;42.162;24.754;2023-01-10T11:47:15;98627.94;;;5.41;100.00
64616;BME280;51027;42.162;24.754;2023-01-10T11:49:45;98632.75;;;5.54;100.00
64616;BME280;51027;42.162;24.754;2023-01-10T11:52:26;98630.53;;;5.66;100.00
64616;BME280;51027;42.162;24.754;2023-01-10T11:54:55;98631.25;;;5.46;100.00
64616;BME280;51027;42.162;24.754;2023-01-10T11:57:26;98632.13;;;5.70;100.00
64616;BME280;51027;42.162;24.754;2023-01-10T12:00:04;98639.34;;;5.64;100.00
64616;BME280;51027;42.162;24.754;2023-01-10T12:02:36;98632.06;;;5.24;100.00
64616;BME280;51027;42.162;24.754;2023-01-10T12:05:06;98619.38;;;5.38;100.00
64616;BME280;51027;42.162;24.754;2023-01-10T12:07:56;98621.22;;;5.59;100.00
64616;BME280;51027;42.162;24.754;2023-01-10T12:10:24;98615.91;;;5.86;100.00
64616;BME280;51027;42.162;24.754;2023-01-10T12:15:31;98633.66;;;5.76;100.00
64616;BME280;51027;42.162;24.754;2023-01-10T12:18:00;98639.44;;;5.61;100.00
64616;BME280;51027;42.162;24.754;2023-01-10T12:20:28;98635.31;;;5.55;100.00
64616;BME280;51027;42.162;24.754;2023-01-10T12:23:02;98632.75;;;5.29;100.00
64616;BME280;51027;42.162;24.754;2023-01-10T12:25:33;98648.78;;;5.18;100.00
64616;BME280;51027;42.162;24.754;2023-01-10T12:28:00;98637.00;;;5.31;100.00
64616;BME280;51027;42.162;24.754;2023-01-10T12:30:35;98657.91;;;5.79;100.00
64616;BME280;51027;42.162;24.754;2023-01-10T12:33:08;98666.25;;;5.91;100.00
64616;BME280;51027;42.162;24.754;2023-01-10T12:35:42;98659.34;;;5.65;100.00
64616;BME280;51027;42.162;24.754;2023-01-10T12:38:31;98660.28;;;5.37;100.00
64616;BME280;51027;42.162;24.754;2023-01-10T12:41:22;98668.63;;;5.72;100.00
64616;BME280;51027;42.162;24.754;2023-01-10T12:44:35;98660.06;;;5.93;100.00
64616;BME280;51027;42.162;24.754;2023-01-10T12:49:40;98633.97;;;5.92;100.00
64616;BME280;51027;42.162;24.754;2023-01-10T12:52:33;98619.19;;;6.14;100.00
64616;BME280;51027;42.162;24.754;2023-01-10T12:55:01;98611.94;;;6.21;100.00
64616;BME280;51027;42.162;24.754;2023-01-10T12:57:31;98607.22;;;6.30;100.00
64616;BME280;51027;42.162;24.754;2023-01-10T13:00:03;98598.88;;;6.21;100.00
64616;BME280;51027;42.162;24.754;2023-01-10T13:02:37;98606.13;;;5.91;100.00
64616;BME280;51027;42.162;24.754;2023-01-10T13:05:04;98608.91;;;6.31;100.00
64616;BME280;51027;42.162;24.754;2023-01-10T13:07:32;98588.97;;;6.29;100.00
64616;BME280;51027;42.162;24.754;2023-01-10T13:10:00;98586.84;;;6.17;100.00
64616;BME280;51027;42.162;24.754;2023-01-10T13:12:32;98631.50;;;5.64;100.00
64616;BME280;51027;42.162;24.754;2023-01-10T13:17:50;98637.50;;;5.91;100.00
64616;BME280;51027;42.162;24.754;2023-01-10T13:20:25;98619.28;;;5.88;100.00
64616;BME280;51027;42.162;24.754;2023-01-10T13:22:56;98640.16;;;6.13;100.00
64616;BME280;51027;42.162;24.754;2023-01-10T13:25:25;98631.06;;;5.76;100.00
64616;BME280;51027;42.162;24.754;2023-01-10T13:28:01;98628.72;;;5.93;100.00
64616;BME280;51027;42.162;24.754;2023-01-10T13:30:36;98614.28;;;5.82;100.00
64616;BME280;51027;42.162;24.754;2023-01-10T13:33:22;98607.28;;;6.07;100.00
64616;BME280;51027;42.162;24.754;2023-01-10T13:35:49;98542.47;;;6.15;100.00
64616;BME280;51027;42.162;24.754;2023-01-10T13:38:37;98597.25;;;6.18;100.00
64616;BME280;51027;42.162;24.754;2023-01-10T13:41:09;98619.00;;;6.62;100.00
64616;BME280;51027;42.162;24.754;2023-01-10T13:51:25;98604.53;;;6.32;100.00
64616;BME280;51027;42.162;24.754;2023-01-10T13:54:01;98642.81;;;6.34;100.00
64616;BME280;51027;42.162;24.754;2023-01-10T13:58:55;98646.28;;;6.57;100.00
64616;BME280;51027;42.162;24.754;2023-01-10T14:01:39;98636.25;;;6.46;100.00
64616;BME280;51027;42.162;24.754;2023-01-10T14:04:37;98630.53;;;6.37;100.00
64616;BME280;51027;42.162;24.754;2023-01-10T14:07:13;98635.88;;;6.33;100.00
64616;BME280;51027;42.162;24.754;2023-01-10T14:09:43;98634.13;;;6.34;100.00